Time;durP1;ratioP1;P1;durP2;ratioP2;P2;SDS_P1;SDS_P2;PMS_P1;PMS_P2;Temp;Humidity;BMP_temperature;BMP_pressure;BME280_temperature;BME280_humidity;BME280_pressure;Samples;Min_cycle;Max_cycle;Signal;HPM_P1;HPM_P2
2022/01/16 00:00:40;;;;;;;21.55;14.00;;;;;;;1.36;75.05;99345.59;5055255;28;20068;-61
2022/01/16 00:05:52;;;;;;;23.17;15.02;;;;;;;1.58;74.41;99348.03;5023988;28;20079;-61
2022/01/16 00:08:17;;;;;;;24.00;14.70;;;;;;;1.49;75.80;99346.69;5019032;28;20033;-62
2022/01/16 00:10:42;;;;;;;22.80;15.05;;;;;;;1.42;75.05;99324.00;4974885;28;20045;-61
2022/01/16 00:13:08;;;;;;;23.30;14.75;;;;;;;1.10;75.09;99237.44;5022665;28;20450;-61
2022/01/16 00:15:33;;;;;;;24.30;14.43;;;;;;;1.26;75.43;99283.69;5028126;28;20029;-61
2022/01/16 00:20:31;;;;;;;21.17;13.90;;;;;;;1.38;75.32;99305.34;5021703;28;20037;-61
2022/01/16 00:22:57;;;;;;;21.42;14.13;;;;;;;1.36;75.47;99319.16;5025268;28;20031;-61
2022/01/16 00:25:23;;;;;;;23.20;14.73;;;;;;;1.41;75.28;99309.53;5006642;28;20109;-61
2022/01/16 00:27:49;;;;;;;21.33;14.10;;;;;;;1.22;75.74;99338.50;5022445;28;20037;-61
2022/01/16 00:30:15;;;;;;;23.80;14.30;;;;;;;0.88;75.47;99275.16;5022986;28;20036;-61
2022/01/16 00:32:41;;;;;;;23.45;14.43;;;;;;;1.05;75.85;99298.28;5056479;28;20538;-61
2022/01/16 00:35:07;;;;;;;23.52;14.60;;;;;;;1.30;75.89;99303.16;5017719;28;20124;-61
2022/01/16 00:37:32;;;;;;;23.17;13.90;;;;;;;1.32;75.67;99306.47;5005237;28;20485;-61
2022/01/16 00:39:57;;;;;;;22.98;14.10;;;;;;;1.31;76.17;99320.19;5055518;28;20120;-61
2022/01/16 00:42:23;;;;;;;21.35;12.60;;;;;;;1.24;76.00;99330.75;4991794;28;20476;-62
2022/01/16 00:44:48;;;;;;;20.42;13.75;;;;;;;1.23;75.94;99334.25;5021970;28;20044;-61
2022/01/16 00:47:14;;;;;;;24.67;14.40;;;;;;;1.18;76.14;99343.84;5022315;28;20033;-61
2022/01/16 00:49:41;;;;;;;25.35;12.48;;;;;;;1.03;77.00;99353.03;5021238;28;20108;-61
2022/01/16 00:52:07;;;;;;;22.58;13.27;;;;;;;1.10;76.68;99341.63;5024044;28;20476;-61
2022/01/16 00:54:32;;;;;;;23.13;13.65;;;;;;;1.21;76.20;99359.94;5019573;28;20032;-61
2022/01/16 00:56:58;;;;;;;25.20;13.98;;;;;;;1.16;75.93;99346.47;5007219;28;20033;-61
2022/01/16 00:59:23;;;;;;;24.13;13.90;;;;;;;1.11;76.23;99344.13;5032251;28;20038;-61
2022/01/16 01:01:49;;;;;;;23.95;13.95;;;;;;;1.02;76.27;99334.25;5020801;28;20469;-61
2022/01/16 01:04:15;;;;;;;19.13;12.60;;;;;;;0.99;76.95;99278.06;5021958;28;20030;-61
2022/01/16 01:06:40;;;;;;;20.55;12.90;;;;;;;0.73;76.81;99207.50;5022409;28;20399;-61
2022/01/16 01:09:06;;;;;;;19.17;12.82;;;;;;;0.95;77.04;99236.41;5058199;28;20387;-61
2022/01/16 01:11:31;;;;;;;20.13;12.60;;;;;;;0.68;77.14;99191.56;5025823;28;20033;-61
2022/01/16 01:15:04;;;;;;;19.15;11.85;;;;;;;0.94;77.13;99251.84;4979028;28;20022;-61
2022/01/16 01:16:54;;;;;;;19.33;12.80;;;;;;;0.80;76.98;99272.09;5021923;28;20044;-61
2022/01/16 01:19:25;;;;;;;19.60;12.15;;;;;;;0.96;77.52;99298.69;5025049;28;20030;-61
2022/01/16 01:21:51;;;;;;;17.92;11.95;;;;;;;0.72;76.85;99269.88;5020018;28;20028;-61
2022/01/16 01:24:16;;;;;;;19.08;12.18;;;;;;;0.98;76.79;99326.78;5006623;28;20033;-62
2022/01/16 01:26:51;;;;;;;19.52;12.55;;;;;;;0.86;76.75;99329.00;5007956;28;20033;-61
2022/01/16 01:29:20;;;;;;;19.70;12.32;;;;;;;0.31;78.25;99275.84;5015728;28;20036;-61
2022/01/16 01:31:45;;;;;;;18.23;11.95;;;;;;;0.55;77.33;99296.19;5056097;28;20025;-61
2022/01/16 01:34:11;;;;;;;20.20;11.40;;;;;;;0.80;77.79;99352.28;5019144;28;20115;-61
2022/01/16 01:36:36;;;;;;;20.60;11.82;;;;;;;0.51;77.45;99286.97;5026130;28;20457;-61
2022/01/16 01:39:02;;;;;;;17.95;11.38;;;;;;;0.90;77.55;99322.84;5053204;28;20443;-61
2022/01/16 01:41:29;;;;;;;18.80;12.25;;;;;;;0.87;76.71;99317.84;5024545;28;20104;-61
2022/01/16 01:52:08;;;;;;;21.80;11.70;;;;;;;0.46;77.00;99311.94;5024866;28;20148;-62
2022/01/16 01:54:33;;;;;;;20.55;12.05;;;;;;;0.77;77.02;99353.25;5026157;28;20033;-61
2022/01/16 01:57:00;;;;;;;20.02;11.23;;;;;;;0.82;77.63;99363.31;5024327;28;20049;-61
2022/01/16 01:59:26;;;;;;;17.05;11.52;;;;;;;0.51;76.88;99315.97;5021029;28;20037;-61
2022/01/16 02:01:52;;;;;;;19.98;11.63;;;;;;;0.51;76.87;99294.63;4972614;28;20113;-61
2022/01/16 02:04:17;;;;;;;19.75;12.18;;;;;;;0.81;77.67;99359.06;5022273;28;20748;-61
2022/01/16 02:06:42;;;;;;;19.77;12.40;;;;;;;0.83;76.88;99362.41;5024619;28;20264;-61
2022/01/16 02:09:08;;;;;;;17.30;11.80;;;;;;;0.43;77.71;99302.63;5040258;28;20082;-62
2022/01/16 02:11:34;;;;;;;19.60;11.63;;;;;;;0.76;77.00;99358.44;5026763;28;20500;-61
2022/01/16 02:14:25;;;;;;;18.33;11.57;;;;;;;0.66;77.70;99362.28;5024353;28;20040;-61
2022/01/16 02:28:21;;;;;;;18.60;11.27;;;;;;;0.50;77.64;99336.50;5025331;28;20102;-62
2022/01/16 02:34:31;;;;;;;17.48;11.43;;;;;;;0.48;77.74;99316.09;4974119;28;20034;-62
2022/01/16 02:36:22;;;;;;;19.65;12.48;;;;;;;0.66;77.83;99340.06;5023995;28;20044;-61
2022/01/16 02:38:48;;;;;;;17.88;11.25;;;;;;;0.70;77.98;99328.81;5026443;28;20153;-62
2022/01/16 02:41:14;;;;;;;18.10;11.70;;;;;;;0.61;78.02;99313.00;5025691;28;20603;-62
2022/01/16 02:43:45;;;;;;;19.15;11.93;;;;;;;0.72;77.85;99324.44;5025154;28;20037;-62
2022/01/16 02:48:39;;;;;;;16.95;10.68;;;;;;;0.53;78.15;99269.81;4981105;28;20499;-61
2022/01/16 02:51:05;;;;;;;22.83;12.40;;;;;;;0.74;77.86;99299.63;5024112;28;20038;-62
2022/01/16 02:53:30;;;;;;;18.80;11.68;;;;;;;0.72;78.15;99303.97;5024732;28;20034;-62
2022/01/16 02:55:55;;;;;;;17.60;11.57;;;;;;;0.56;78.00;99303.78;5004190;28;20037;-61
2022/01/16 02:58:21;;;;;;;20.65;12.27;;;;;;;0.60;78.42;99298.53;5018483;28;20447;-62
2022/01/16 03:00:46;;;;;;;20.60;12.02;;;;;;;0.64;78.65;99290.69;5027991;28;20056;-62
2022/01/16 03:03:11;;;;;;;17.85;11.60;;;;;;;0.58;78.88;99265.34;5005910;28;20034;-63
2022/01/16 03:05:37;;;;;;;17.13;11.23;;;;;;;0.56;78.71;99272.25;5027066;28;20388;-62
2022/01/16 03:08:04;;;;;;;19.55;11.70;;;;;;;0.30;77.95;99211.97;5015883;28;20038;-62
2022/01/16 03:12:58;;;;;;;19.92;11.70;;;;;;;0.64;78.35;99264.22;5053237;28;20611;-61
2022/01/16 03:15:24;;;;;;;17.58;11.43;;;;;;;0.61;78.27;99256.72;5021045;28;20033;-61
2022/01/16 03:23:08;;;;;;;21.58;11.85;;;;;;;0.18;78.90;99205.63;5023551;28;20804;-62
2022/01/16 03:25:34;;;;;;;17.67;10.75;;;;;;;0.59;78.87;99251.66;5020653;28;20037;-61
2022/01/16 03:27:59;;;;;;;19.05;11.57;;;;;;;0.64;79.13;99254.00;5025280;28;20059;-61
2022/01/16 03:30:24;;;;;;;19.10;12.18;;;;;;;0.57;79.21;99232.97;5022836;28;20052;-62
2022/01/16 03:32:50;;;;;;;15.57;10.63;;;;;;;0.65;78.84;99250.56;5024612;28;20037;-62
2022/01/16 03:35:15;;;;;;;18.67;11.40;;;;;;;0.29;78.90;99202.59;5007609;28;20037;-62
2022/01/16 03:37:40;;;;;;;18.60;10.63;;;;;;;0.50;79.02;99241.81;5001477;28;20041;-62
2022/01/16 03:40:10;;;;;;;17.33;11.68;;;;;;;0.46;79.53;99273.56;5026157;28;20095;-62
2022/01/16 03:42:36;;;;;;;25.08;12.95;;;;;;;0.27;79.89;99266.63;5015364;28;20034;-62
2022/01/16 03:45:03;;;;;;;19.75;11.75;;;;;;;0.32;80.01;99279.22;5023907;28;20045;-62
2022/01/16 03:47:28;;;;;;;20.17;12.43;;;;;;;0.01;80.58;99225.97;5013567;28;20033;-62
2022/01/16 03:49:54;;;;;;;17.30;10.90;;;;;;;0.30;80.53;99281.84;5012287;28;20479;-62
2022/01/16 03:52:19;;;;;;;16.42;11.07;;;;;;;0.42;80.12;99272.00;4967981;28;20025;-61
2022/01/16 03:54:45;;;;;;;16.02;11.50;;;;;;;0.32;79.50;99272.38;5021619;28;20513;-61
2022/01/16 03:57:10;;;;;;;16.00;10.75;;;;;;;0.38;79.17;99271.28;5025352;28;20669;-61
2022/01/16 03:59:35;;;;;;;14.30;10.82;;;;;;;0.33;79.65;99276.63;4998351;28;20065;-61
2022/01/16 04:02:01;;;;;;;16.27;10.77;;;;;;;0.38;79.43;99263.63;5021906;28;20052;-61
2022/01/16 04:04:26;;;;;;;16.08;11.38;;;;;;;0.08;79.45;99200.06;5025387;28;20033;-62
2022/01/16 04:06:53;;;;;;;16.92;11.98;;;;;;;0.39;79.83;99255.06;5011830;28;20033;-61
2022/01/16 04:09:18;;;;;;;17.42;11.75;;;;;;;0.44;80.15;99263.38;4998865;28;20567;-63
2022/01/16 04:11:55;;;;;;;19.17;11.35;;;;;;;0.15;79.92;99223.66;5014808;28;20039;-61
2022/01/16 04:17:07;;;;;;;18.20;10.95;;;;;;;-0.03;79.37;99194.56;5003300;28;20045;-61
2022/01/16 04:19:33;;;;;;;14.65;10.18;;;;;;;0.34;79.44;99245.00;5026000;28;20021;-62
2022/01/16 04:21:58;;;;;;;19.00;11.30;;;;;;;0.27;80.14;99227.44;5026994;28;20029;-61
2022/01/16 04:24:23;;;;;;;18.23;11.98;;;;;;;0.31;80.14;99240.03;4981478;28;20115;-62
2022/01/16 04:26:49;;;;;;;16.50;10.80;;;;;;;0.29;80.24;99243.53;5021914;28;20101;-62
2022/01/16 04:29:14;;;;;;;19.08;11.27;;;;;;;0.28;80.95;99242.72;5024924;28;20037;-61
2022/01/16 04:31:39;;;;;;;15.35;11.05;;;;;;;0.24;79.93;99222.44;5022485;28;20044;-61
2022/01/16 04:34:05;;;;;;;16.08;10.75;;;;;;;0.13;80.12;99231.41;5024145;28;20067;-61
2022/01/16 04:36:30;;;;;;;16.27;10.13;;;;;;;0.27;80.02;99235.09;5049234;28;20547;-62
2022/01/16 04:38:56;;;;;;;17.77;11.57;;;;;;;0.23;80.05;99231.03;4973469;28;20045;-62
2022/01/16 04:44:05;;;;;;;16.02;10.43;;;;;;;0.33;79.91;99238.25;5025326;28;20259;-61
2022/01/16 04:46:31;;;;;;;16.08;11.05;;;;;;;0.01;79.78;99177.38;5027711;28;20033;-61
2022/01/16 04:48:58;;;;;;;17.75;10.35;;;;;;;0.23;79.77;99226.72;5024830;28;20112;-62
2022/01/16 04:51:24;;;;;;;17.40;10.73;;;;;;;0.01;80.09;99200.41;5026424;28;20042;-62
2022/01/16 04:53:50;;;;;;;19.15;11.02;;;;;;;0.15;80.44;99233.91;5016848;28;20025;-62
2022/01/16 04:56:15;;;;;;;17.70;11.68;;;;;;;0.14;80.57;99239.91;5046008;28;20029;-62
2022/01/16 04:58:42;;;;;;;19.60;11.20;;;;;;;0.20;80.45;99234.50;5028550;28;20049;-61
2022/01/16 05:01:08;;;;;;;16.73;10.82;;;;;;;0.08;80.42;99228.19;5024311;28;20058;-62
2022/01/16 05:03:34;;;;;;;15.65;11.20;;;;;;;0.21;80.82;99238.75;5014945;28;20499;-61
2022/01/16 05:06:00;;;;;;;16.80;10.85;;;;;;;0.06;81.02;99229.16;5052455;28;20116;-61
2022/01/16 05:08:26;;;;;;;15.60;10.30;;;;;;;-0.06;81.46;99225.38;5005946;28;20076;-61
2022/01/16 05:10:54;;;;;;;16.02;10.90;;;;;;;0.08;81.27;99230.75;4987181;28;20046;-61
2022/01/16 05:18:35;;;;;;;17.88;10.88;;;;;;;-0.09;81.35;99228.91;5019408;28;20075;-61
2022/01/16 05:21:01;;;;;;;15.23;10.00;;;;;;;0.09;81.61;99241.81;5041839;28;20053;-61
2022/01/16 05:23:27;;;;;;;16.27;10.57;;;;;;;0.14;81.08;99242.47;5026663;28;20063;-61
2022/01/16 05:25:52;;;;;;;19.38;11.70;;;;;;;-0.11;81.47;99199.16;4997975;28;20062;-61
2022/01/16 05:28:18;;;;;;;19.40;12.60;;;;;;;-0.12;81.97;99233.31;5026402;28;20048;-61
2022/01/16 05:30:43;;;;;;;16.60;10.23;;;;;;;-0.14;82.16;99246.16;5057324;28;20033;-62
2022/01/16 05:33:09;;;;;;;15.32;9.95;;;;;;;0.00;81.52;99240.47;5027310;28;20037;-62
2022/01/16 05:35:35;;;;;;;15.77;10.45;;;;;;;0.13;81.06;99246.75;5042395;28;20226;-62
2022/01/16 05:38:00;;;;;;;15.60;10.13;;;;;;;0.11;80.71;99245.13;5026463;28;20627;-61
2022/01/16 05:40:26;;;;;;;16.67;9.98;;;;;;;-0.10;80.50;99231.50;5020327;28;20504;-62
2022/01/16 05:42:51;;;;;;;17.30;10.15;;;;;;;-0.01;80.07;99237.06;5008900;28;20060;-61
2022/01/16 05:45:16;;;;;;;17.17;10.52;;;;;;;-0.28;79.82;99187.06;5026232;28;20072;-62
2022/01/16 05:47:42;;;;;;;17.30;10.82;;;;;;;0.12;79.86;99236.56;5026281;28;20029;-62
2022/01/16 05:50:08;;;;;;;15.65;10.10;;;;;;;-0.01;79.97;99247.31;5027834;28;20037;-61
2022/01/16 05:52:33;;;;;;;16.05;10.07;;;;;;;-0.13;80.18;99232.44;5028050;28;20482;-62
2022/01/16 05:54:59;;;;;;;14.85;10.23;;;;;;;-0.03;79.89;99231.19;5026570;28;20076;-62
2022/01/16 05:57:24;;;;;;;15.70;10.25;;;;;;;0.11;79.66;99240.00;5004253;28;20535;-61
2022/01/16 05:59:49;;;;;;;14.88;10.30;;;;;;;0.12;79.91;99247.63;4996665;28;20135;-61
2022/01/16 06:02:15;;;;;;;16.08;10.93;;;;;;;0.13;79.97;99253.59;5022607;28;20052;-62
2022/01/16 06:04:41;;;;;;;16.25;10.80;;;;;;;0.05;80.20;99245.41;5025908;28;20664;-62
2022/01/16 06:07:06;;;;;;;17.88;10.32;;;;;;;-0.18;80.68;99213.94;5025863;28;20033;-61
2022/01/16 06:09:32;;;;;;;15.77;9.88;;;;;;;-0.03;79.99;99258.50;5025668;28;20072;-62
2022/01/16 06:11:58;;;;;;;15.52;10.07;;;;;;;-0.44;80.69;99194.53;5025154;28;20029;-62
2022/01/16 06:14:24;;;;;;;15.20;9.93;;;;;;;-0.16;81.03;99257.34;5007386;28;20036;-62
2022/01/16 06:16:51;;;;;;;15.45;9.52;;;;;;;-0.21;80.42;99235.31;5025014;28;20590;-62
2022/01/16 06:19:17;;;;;;;16.23;10.55;;;;;;;-0.12;80.34;99252.03;5024081;28;20120;-60
2022/01/16 06:21:42;;;;;;;15.77;10.13;;;;;;;-0.07;79.94;99259.53;5009342;28;20104;-61
2022/01/16 06:24:08;;;;;;;17.48;9.80;;;;;;;-0.04;80.74;99270.47;5023854;28;20057;-61
2022/01/16 06:26:33;;;;;;;14.75;9.75;;;;;;;-0.12;80.76;99266.53;5007100;28;20034;-61
2022/01/16 06:28:59;;;;;;;15.43;10.25;;;;;;;-0.68;81.78;99202.25;5023711;28;20029;-61
2022/01/16 06:31:24;;;;;;;15.93;9.88;;;;;;;-0.26;81.85;99261.97;4951657;28;20438;-61
2022/01/16 06:33:50;;;;;;;17.10;10.32;;;;;;;-0.09;80.89;99271.50;5022476;28;20030;-61
2022/01/16 06:36:16;;;;;;;16.83;10.40;;;;;;;-0.10;80.09;99272.41;5024963;28;20123;-61
2022/01/16 06:38:41;;;;;;;18.20;10.70;;;;;;;-0.17;80.34;99281.22;5020537;28;20037;-61
2022/01/16 06:41:07;;;;;;;15.95;9.82;;;;;;;-0.42;81.03;99272.78;5005119;28;20116;-61
2022/01/16 06:43:33;;;;;;;20.20;12.38;;;;;;;-0.47;82.17;99279.81;5039538;28;20104;-61
2022/01/16 06:45:59;;;;;;;19.10;11.57;;;;;;;-0.28;80.99;99291.88;5017865;28;20437;-61
2022/01/16 06:48:24;;;;;;;18.00;11.73;;;;;;;-0.76;80.03;99199.19;5004793;28;20067;-61
2022/01/16 06:50:49;;;;;;;16.70;10.73;;;;;;;-0.16;80.36;99303.34;5024785;28;20933;-61
2022/01/16 06:53:15;;;;;;;17.85;10.73;;;;;;;-0.11;79.96;99297.16;5023176;28;20029;-61
2022/01/16 06:55:40;;;;;;;17.50;11.23;;;;;;;-0.40;80.58;99255.69;5021815;28;20847;-61
2022/01/16 06:58:06;;;;;;;17.70;10.95;;;;;;;-0.23;80.03;99306.13;5040286;28;20096;-61
2022/01/16 07:00:31;;;;;;;17.20;10.77;;;;;;;-0.28;79.93;99297.78;5024161;28;20033;-61
2022/01/16 07:02:57;;;;;;;17.00;10.98;;;;;;;-0.48;79.87;99256.84;5010911;28;21131;-59
2022/01/16 07:05:22;;;;;;;19.30;11.50;;;;;;;-0.27;79.88;99309.69;4994113;28;20488;-62
2022/01/16 07:07:48;;;;;;;18.27;11.20;;;;;;;-0.21;81.08;99313.75;5024732;28;20044;-61
2022/01/16 07:10:13;;;;;;;18.60;11.30;;;;;;;-0.28;80.95;99314.88;5020492;28;20033;-62
2022/01/16 07:12:39;;;;;;;17.90;11.80;;;;;;;-0.45;81.04;99313.78;5018778;28;20037;-61
2022/01/16 07:15:05;;;;;;;17.17;10.80;;;;;;;-0.76;81.01;99259.66;5023444;28;20029;-61
2022/01/16 07:17:30;;;;;;;19.20;12.25;;;;;;;-0.69;80.88;99314.72;5024941;28;20032;-61
2022/01/16 07:19:55;;;;;;;20.52;12.18;;;;;;;-0.56;80.73;99289.56;4955099;28;20484;-61
2022/01/16 07:22:21;;;;;;;19.98;11.57;;;;;;;-0.39;80.51;99310.16;5023195;28;20030;-61
2022/01/16 07:24:48;;;;;;;21.67;12.15;;;;;;;-0.36;80.62;99322.00;5024741;28;20113;-61
2022/01/16 07:27:13;;;;;;;19.33;11.82;;;;;;;-0.43;81.28;99324.78;5040499;28;20640;-60
2022/01/16 07:29:39;;;;;;;19.70;11.70;;;;;;;-0.48;81.92;99305.41;5018480;28;20029;-61
2022/01/16 07:32:06;;;;;;;27.65;15.85;;;;;;;-0.50;81.94;99330.19;5040724;28;20057;-61
2022/01/16 07:34:32;;;;;;;28.25;14.93;;;;;;;-0.46;81.88;99334.28;5017009;28;20434;-60
2022/01/16 07:36:57;;;;;;;29.27;16.58;;;;;;;-0.82;80.89;99268.38;4960710;28;20041;-61
2022/01/16 07:39:22;;;;;;;24.55;14.82;;;;;;;-0.39;81.15;99315.28;5025155;28;20034;-61
2022/01/16 07:41:48;;;;;;;24.17;14.38;;;;;;;-0.31;80.71;99312.41;5023826;28;20751;-61
2022/01/16 07:44:14;;;;;;;23.90;13.45;;;;;;;-0.31;81.34;99304.75;5049202;28;20245;-61
2022/01/16 07:46:39;;;;;;;20.25;12.32;;;;;;;-0.69;82.60;99253.41;5024592;28;20591;-60
2022/01/16 07:49:05;;;;;;;25.25;13.55;;;;;;;-0.28;82.26;99312.31;5023595;28;20329;-61
2022/01/16 07:51:32;;;;;;;21.73;13.40;;;;;;;-0.28;82.12;99304.66;5007490;28;20091;-61
2022/01/16 07:53:57;;;;;;;21.88;13.73;;;;;;;-0.59;82.48;99252.16;5030486;28;20260;-60
2022/01/16 07:56:23;;;;;;;20.40;13.52;;;;;;;-0.55;82.29;99293.75;5019915;28;20041;-61
2022/01/16 07:58:48;;;;;;;19.27;12.80;;;;;;;-0.47;82.52;99295.13;5023437;28;20476;-60
2022/01/16 08:01:13;;;;;;;19.27;12.82;;;;;;;-0.30;81.88;99304.69;5021251;28;20100;-60
2022/01/16 08:03:39;;;;;;;17.13;11.68;;;;;;;-0.35;82.13;99286.16;5004077;28;20037;-61
2022/01/16 08:06:04;;;;;;;20.38;12.57;;;;;;;-0.36;81.53;99273.47;5019222;28;20451;-61
2022/01/16 08:08:30;;;;;;;19.30;12.23;;;;;;;-0.17;81.42;99289.72;5010032;28;20046;-60
2022/01/16 08:10:55;;;;;;;17.35;11.55;;;;;;;-0.11;81.04;99281.81;5012671;28;20033;-61
2022/01/16 08:13:21;;;;;;;19.58;11.77;;;;;;;-0.35;81.82;99285.31;5025472;28;20043;-61
2022/01/16 08:15:46;;;;;;;17.50;11.15;;;;;;;-0.29;82.29;99280.81;5020629;28;20029;-61
2022/01/16 08:18:11;;;;;;;19.40;12.10;;;;;;;-0.13;81.49;99285.31;5026871;28;20365;-60
2022/01/16 08:20:37;;;;;;;17.08;11.23;;;;;;;-0.42;81.24;99226.81;5022905;28;20033;-61
2022/01/16 08:23:02;;;;;;;16.90;11.50;;;;;;;-0.64;82.64;99236.16;4977360;28;20380;-61
2022/01/16 08:25:28;;;;;;;16.05;10.82;;;;;;;-0.30;82.49;99303.88;5003346;28;20124;-61
2022/01/16 08:27:53;;;;;;;20.10;11.75;;;;;;;-0.53;82.31;99256.19;5047430;28;20484;-61
2022/01/16 08:30:19;;;;;;;17.30;11.40;;;;;;;-0.21;82.95;99288.19;5027851;28;20029;-61
2022/01/16 08:32:45;;;;;;;17.73;12.13;;;;;;;-0.26;82.50;99292.63;5031295;28;20408;-61
2022/01/16 08:35:11;;;;;;;18.88;11.73;;;;;;;-0.50;83.20;99295.25;5020046;28;20030;-61
2022/01/16 08:37:37;;;;;;;17.13;11.75;;;;;;;-0.50;85.49;99294.41;5051785;28;20029;-61
2022/01/16 08:40:04;;;;;;;20.02;11.57;;;;;;;-0.25;84.82;99296.88;5004024;28;20364;-61
2022/01/16 08:42:29;;;;;;;19.08;11.55;;;;;;;-0.51;84.63;99234.81;5004046;28;20030;-61
2022/01/16 08:44:55;;;;;;;18.85;11.85;;;;;;;-0.06;84.09;99279.88;5021201;28;20480;-61
2022/01/16 08:47:20;;;;;;;16.65;11.40;;;;;;;-0.03;84.22;99276.41;5024456;28;20052;-61
2022/01/16 08:49:46;;;;;;;18.80;12.13;;;;;;;0.01;84.31;99285.59;5003273;28;20034;-61
2022/01/16 08:52:11;;;;;;;16.35;11.82;;;;;;;0.06;83.84;99288.81;5057592;28;20432;-61
2022/01/16 08:54:37;;;;;;;16.58;11.30;;;;;;;-0.13;83.72;99246.97;5023505;28;20029;-60
2022/01/16 08:57:03;;;;;;;19.48;11.70;;;;;;;0.15;84.71;99306.34;5039937;28;20112;-61
2022/01/16 08:59:28;;;;;;;17.42;11.85;;;;;;;0.16;84.48;99297.78;5024463;28;20075;-60
2022/01/16 09:01:54;;;;;;;17.05;12.25;;;;;;;-0.04;84.45;99241.47;5016825;28;20026;-61
2022/01/16 09:04:19;;;;;;;17.42;11.77;;;;;;;-0.03;84.53;99236.31;5016260;28;20064;-62
2022/01/16 09:06:44;;;;;;;16.85;11.68;;;;;;;0.29;84.02;99303.22;5007767;28;20150;-61
2022/01/16 09:09:11;;;;;;;18.13;11.70;;;;;;;0.19;84.97;99282.28;4986351;28;20050;-60
2022/01/16 09:11:36;;;;;;;17.42;11.77;;;;;;;0.32;84.81;99292.03;4982219;28;20412;-61
2022/01/16 09:14:02;;;;;;;19.85;12.57;;;;;;;0.35;85.15;99299.59;4986125;28;20026;-61
2022/01/16 09:16:27;;;;;;;19.33;12.40;;;;;;;0.37;86.33;99292.66;4987621;28;20030;-61
2022/01/16 09:18:53;;;;;;;19.40;12.02;;;;;;;0.37;86.35;99301.16;4990874;28;20035;-62
2022/01/16 09:21:19;;;;;;;17.23;12.10;;;;;;;0.34;86.85;99301.28;4987177;28;20769;-61
2022/01/16 09:23:46;;;;;;;17.40;11.43;;;;;;;0.30;86.99;99286.97;4991453;28;20600;-61
2022/01/16 09:26:12;;;;;;;21.67;13.18;;;;;;;0.11;87.37;99240.88;4993060;28;20022;-62
2022/01/16 09:28:37;;;;;;;29.63;15.55;;;;;;;0.52;86.96;99292.00;4990004;28;20034;-60
2022/01/16 09:31:04;;;;;;;47.20;22.17;;;;;;;0.40;87.25;99284.03;4989473;28;20443;-60
2022/01/16 09:33:29;;;;;;;66.07;30.08;;;;;;;0.49;88.62;99299.00;4995851;28;20037;-61
2022/01/16 09:35:55;;;;;;;58.55;28.88;;;;;;;0.63;89.03;99298.41;5000109;28;20030;-61
2022/01/16 09:38:22;;;;;;;67.32;31.33;;;;;;;0.77;88.08;99294.38;5003246;28;20033;-60
2022/01/16 09:40:48;;;;;;;64.05;31.23;;;;;;;0.76;88.10;99279.06;4995026;28;20025;-60
2022/01/16 09:43:14;;;;;;;66.55;32.22;;;;;;;0.80;88.06;99295.13;5005631;28;20465;-60
2022/01/16 09:45:39;;;;;;;62.92;30.85;;;;;;;0.48;87.87;99236.75;5004466;28;20038;-60
2022/01/16 09:48:05;;;;;;;49.10;26.80;;;;;;;0.75;88.38;99279.97;4987432;28;20808;-60
2022/01/16 09:50:30;;;;;;;43.65;23.05;;;;;;;0.80;89.26;99284.88;5001276;28;20095;-60
2022/01/16 09:52:56;;;;;;;43.28;25.30;;;;;;;0.91;89.25;99280.13;4997820;28;20030;-61
2022/01/16 09:55:22;;;;;;;44.55;23.40;;;;;;;0.84;88.46;99278.72;5007462;28;20037;-60
2022/01/16 09:57:49;;;;;;;34.22;19.98;;;;;;;0.89;88.68;99279.38;4985713;28;20401;-60
2022/01/16 10:00:17;;;;;;;30.83;19.27;;;;;;;0.98;88.33;99273.00;4991963;28;20723;-60
2022/01/16 10:02:43;;;;;;;28.73;18.02;;;;;;;1.04;87.75;99273.59;5003691;28;20037;-60
2022/01/16 10:05:39;;;;;;;27.25;16.48;;;;;;;1.18;87.67;99279.81;4998318;28;20030;-60
2022/01/16 10:08:07;;;;;;;27.70;15.95;;;;;;;1.19;87.85;99274.63;5000214;28;20091;-60
2022/01/16 10:10:35;;;;;;;27.20;16.25;;;;;;;1.26;88.06;99262.34;4998073;28;20060;-61
2022/01/16 10:13:21;;;;;;;26.27;14.75;;;;;;;1.28;87.78;99251.16;5005280;28;20055;-60
2022/01/16 10:15:54;;;;;;;20.95;13.88;;;;;;;1.38;87.44;99266.09;4991907;28;20137;-59
2022/01/16 10:18:38;;;;;;;17.95;11.50;;;;;;;1.47;87.08;99251.13;5001741;28;20030;-61
2022/01/16 10:21:05;;;;;;;18.60;11.98;;;;;;;1.54;86.75;99257.63;5003660;28;20113;-61
2022/01/16 10:23:38;;;;;;;16.88;9.50;;;;;;;1.71;85.18;99238.03;4995153;28;20481;-60
2022/01/16 10:26:03;;;;;;;16.02;9.73;;;;;;;1.79;84.42;99233.38;4981332;28;20058;-61
2022/01/16 10:28:29;;;;;;;16.48;9.48;;;;;;;1.51;84.34;99178.28;4994362;28;20032;-60
2022/01/16 10:30:57;;;;;;;16.08;9.18;;;;;;;2.02;83.72;99221.16;4991083;28;20042;-60
2022/01/16 10:33:24;;;;;;;14.70;9.90;;;;;;;2.18;83.70;99211.81;4990986;28;20034;-62
2022/01/16 10:35:52;;;;;;;14.20;9.73;;;;;;;2.08;82.83;99161.84;4991364;28;20048;-60
2022/01/16 10:38:20;;;;;;;12.23;8.95;;;;;;;2.48;81.66;99206.00;4974714;28;20026;-64
2022/01/16 10:40:50;;;;;;;15.38;9.55;;;;;;;2.48;80.73;99177.78;4973376;28;20026;-64
2022/01/16 10:43:21;;;;;;;11.65;7.53;;;;;;;2.90;78.78;99199.53;4989772;28;20040;-64
2022/01/16 10:45:47;;;;;;;10.88;6.97;;;;;;;2.92;78.32;99184.91;4994975;28;20041;-63
2022/01/16 10:48:13;;;;;;;12.27;7.47;;;;;;;2.81;78.20;99171.78;4974561;28;20072;-64
2022/01/16 10:50:44;;;;;;;13.60;8.52;;;;;;;2.81;78.08;99177.75;4990806;28;20061;-72
2022/01/16 10:53:19;;;;;;;15.45;9.57;;;;;;;2.95;77.97;99171.03;4993026;28;20031;-72
2022/01/16 10:56:13;;;;;;;12.40;7.90;;;;;;;3.34;77.40;99177.47;4980782;28;20050;-72
2022/01/16 10:58:43;;;;;;;10.15;7.05;;;;;;;3.46;76.47;99169.91;4982629;28;20113;-71
2022/01/16 11:01:11;;;;;;;12.15;8.25;;;;;;;3.51;75.41;99159.38;4976659;28;20499;-72
2022/01/16 11:03:47;;;;;;;12.45;7.80;;;;;;;3.50;74.66;99115.75;4989131;28;20072;-72
2022/01/16 11:06:13;;;;;;;17.90;10.20;;;;;;;3.80;73.52;99157.72;4981505;28;20781;-72
2022/01/16 11:08:39;;;;;;;13.18;8.30;;;;;;;3.74;73.97;99152.09;4997076;28;20026;-72
2022/01/16 11:11:07;;;;;;;12.38;7.60;;;;;;;3.86;73.87;99151.38;4982873;28;20045;-72
2022/01/16 11:13:34;;;;;;;10.88;7.47;;;;;;;3.93;73.11;99116.66;4993712;28;20722;-72
2022/01/16 11:16:03;;;;;;;12.48;7.53;;;;;;;4.25;73.53;99155.09;4991586;28;20544;-72
2022/01/16 11:18:31;;;;;;;12.70;8.53;;;;;;;4.30;72.79;99152.25;4983445;28;20018;-72
2022/01/16 11:25:58;;;;;;;12.88;8.13;;;;;;;4.11;71.99;99116.50;4991315;28;20037;-72
2022/01/16 11:28:23;;;;;;;16.90;9.32;;;;;;;4.12;71.17;99085.50;4985498;28;20054;-72
2022/01/16 11:30:54;;;;;;;13.25;7.25;;;;;;;4.80;69.12;99131.16;4993877;28;20133;-72
2022/01/16 11:33:21;;;;;;;9.43;6.43;;;;;;;4.63;68.10;99116.72;4991441;28;20137;-72
2022/01/16 11:35:58;;;;;;;9.88;6.70;;;;;;;4.63;69.14;99132.19;4991338;28;20033;-73
2022/01/16 11:38:29;;;;;;;11.73;6.82;;;;;;;4.81;67.02;99130.22;4988389;28;20029;-72
2022/01/16 11:40:55;;;;;;;13.90;7.57;;;;;;;4.90;67.89;99128.81;4975293;28;20548;-72
2022/01/16 11:43:30;;;;;;;11.35;7.28;;;;;;;4.69;67.38;99081.22;4994506;28;20037;-73
2022/01/16 11:46:07;;;;;;;9.60;5.93;;;;;;;5.08;67.40;99092.53;4998239;28;20027;-71
2022/01/16 11:48:42;;;;;;;12.82;8.32;;;;;;;5.33;66.38;99118.38;5002392;28;20026;-72
2022/01/16 11:51:40;;;;;;;13.65;8.68;;;;;;;5.33;71.11;99128.69;4983168;28;20034;-72
2022/01/16 11:54:06;;;;;;;13.77;9.55;;;;;;;5.22;72.48;99125.13;4999450;28;20036;-72
2022/01/16 11:56:52;;;;;;;14.52;9.98;;;;;;;5.15;71.96;99114.41;5002667;28;20373;-72
2022/01/16 11:59:24;;;;;;;11.80;7.63;;;;;;;5.18;68.61;99098.72;4983432;28;20037;-72
2022/01/16 12:02:09;;;;;;;10.30;7.10;;;;;;;4.81;68.80;99039.22;4991798;28;20119;-72
2022/01/16 12:04:38;;;;;;;11.23;7.28;;;;;;;5.29;66.63;99092.88;5001596;28;20512;-72
2022/01/16 12:07:12;;;;;;;12.32;7.72;;;;;;;5.05;66.97;99060.00;5004226;28;20116;-72
2022/01/16 12:12:23;;;;;;;12.40;7.20;;;;;;;5.72;67.08;99092.66;4998570;28;20038;-72
2022/01/16 12:15:32;;;;;;;10.45;7.72;;;;;;;5.78;66.79;99087.06;4991301;28;20034;-72
2022/01/16 12:17:57;;;;;;;10.40;6.93;;;;;;;5.78;67.53;99087.06;4990018;28;20259;-72
2022/01/16 12:20:26;;;;;;;11.23;7.00;;;;;;;5.82;66.23;99078.19;4989875;28;20553;-72